TimeCST,TemperatureF,Dew PointF,Humidity,Sea Level PressureIn,VisibilityMPH,Wind Direction,Wind SpeedMPH,Gust SpeedMPH,PrecipitationIn,Events,Conditions,WindDirDegrees,DateUTC
12:56 AM,30.0,21.0,69,29.98,10.0,SSE,19.6,-,N/A,,Clear,160,2013-02-18 06:56:00
1:56 AM,30.0,21.0,69,29.95,10.0,SSE,21.9,25.3,N/A,,Clear,160,2013-02-18 07:56:00
2:56 AM,30.0,22.1,72,29.92,10.0,South,19.6,-,N/A,,Clear,170,2013-02-18 08:56:00
3:56 AM,31.1,22.1,69,29.89,10.0,South,19.6,-,N/A,,Clear,170,2013-02-18 09:56:00
5:56 AM,31.1,24.1,75,29.86,10.0,South,19.6,-,N/A,,Clear,170,2013-02-18 11:56:00
6:56 AM,32.9,26.1,76,29.84,10.0,South,17.3,-,N/A,,Clear,180,2013-02-18 12:56:00
7:56 AM,36.9,30.0,76,29.83,10.0,South,20.7,-,N/A,,Clear,180,2013-02-18 13:56:00
8:56 AM,45.9,34.9,66,29.79,10.0,South,24.2,29.9,N/A,,Clear,190,2013-02-18 14:56:00
9:56 AM,50.9,37.9,61,29.76,10.0,South,28.8,39.1,N/A,,Clear,190,2013-02-18 15:56:00
10:56 AM,52.0,39.9,63,29.75,10.0,SSW,29.9,35.7,N/A,,Clear,210,2013-02-18 16:56:00
11:56 AM,52.0,41.9,69,29.73,10.0,SSW,29.9,38.0,N/A,,Mostly Cloudy,200,2013-02-18 17:56:00
12:56 PM,54.0,43.9,69,29.68,10.0,SSW,32.2,38.0,N/A,,Overcast,200,2013-02-18 18:56:00
1:56 PM,52.0,43.9,74,29.66,10.0,SSW,24.2,34.5,N/A,,Overcast,210,2013-02-18 19:56:00
2:56 PM,52.0,43.9,74,29.63,10.0,SSW,34.5,41.4,N/A,,Overcast,200,2013-02-18 20:56:00
3:56 PM,48.9,43.9,83,29.60,10.0,SSW,32.2,42.6,N/A,,Overcast,200,2013-02-18 21:56:00
5:49 PM,46.4,44.6,93,29.52,2.5,SSW,29.9,36.8,0.02,Rain,Rain,200,2013-02-18 23:49:00
5:56 PM,46.9,45.0,93,29.55,1.5,South,29.9,38.0,0.06,Rain,Rain,190,2013-02-18 23:56:00
6:15 PM,46.4,44.6,93,29.51,3.0,SSW,17.3,-,0.05,Rain,Light Rain,200,2013-02-19 00:15:00
6:35 PM,46.4,46.4,100,29.49,2.5,South,27.6,36.8,0.08,Rain,Light Rain,190,2013-02-19 00:35:00
6:56 PM,46.9,45.9,96,29.52,2.0,SSW,28.8,36.8,0.12,Rain,Light Rain,200,2013-02-19 00:56:00
7:41 PM,41.0,39.2,93,29.53,2.0,WNW,18.4,29.9,0.08,Rain,Light Rain,300,2013-02-19 01:41:00
7:58 PM,39.2,37.4,93,29.54,4.0,WNW,17.3,-,0.00,Rain,Light Rain,300,2013-02-19 01:58:00
8:56 PM,34.0,32.9,96,29.64,8.0,West,23.0,28.8,0.01,Rain,Light Rain,280,2013-02-19 02:56:00
9:56 PM,32.0,30.0,92,29.68,7.0,West,21.9,33.4,0.00,Snow,Light Snow,270,2013-02-19 03:56:00
10:56 PM,28.0,24.1,85,29.72,10.0,WNW,29.9,42.6,0.00,,Overcast,290,2013-02-19 04:56:00
11:05 PM,26.6,23.0,86,29.69,10.0,WNW,28.8,40.3,N/A,,Overcast,290,2013-02-19 05:05:00
11:43 PM,24.8,21.2,86,29.73,10.0,WNW,27.6,39.1,N/A,,Overcast,290,2013-02-19 05:43:00
11:56 PM,25.2,21.0,84,29.77,10.0,West,24.2,33.4,N/A,,Overcast,280,2013-02-19 05:56:00